Samus Swan — 9HA2333 — position and weather

sailwx.info

Track history (hours):
 
Tides and Currents Weather Stations Pressure Air Temp Water Temp Dewpoint Dewpoint Depression Visibility Wind Speed Wind Dir Waves Ship Positions

Samus Swan

Last reported at 2016-Jul-22 03:07 UTC. Time now 2016-Jul-26 16:09 UTC.
Position N 36°29' E 014°31'.

Length 106 m; draft 5.4 m.

Type: Tanker. MMSI: 248363000.

Date/timePositionNaut miles runAvg speedWind from/ knotsBaromVisibWave heightAir tempDewpointWater temp
2016-Jul-22 03:07N 36°29' E 014°31'5 8.9
2016-Jul-22 02:33N 36°30' E 014°25'22 9.8
2016-Jul-22 00:16N 36°35' E 013°58'7 9.6
2016-Jul-21 23:33N 36°36' E 013°50'10 9.8
2016-Jul-21 22:33N 36°39' E 013°38'10 9.7
2016-Jul-21 21:33N 36°41' E 013°26'1111.1
2016-Jul-21 20:33N 36°44' E 013°13'1211.8
2016-Jul-21 19:33N 36°47' E 012°59'1211.6
2016-Jul-21 18:33N 36°50' E 012°45'1211.9
2016-Jul-21 17:33N 36°53' E 012°30'1412.0
2016-Jul-21 16:25N 36°55' E 012°14'2111.4
2016-Jul-21 14:33N 37°03' E 011°49'1211.9
2016-Jul-21 13:33N 37°10' E 011°36'1211.8
2016-Jul-21 12:33N 37°16' E 011°24'1312.5
2016-Jul-21 11:33N 37°21' E 011°09'1312.9
2016-Jul-21 10:33N 37°26' E 010°54'1212.3
2016-Jul-21 09:33N 37°29' E 010°39'1212.3
2016-Jul-21 08:33N 37°32' E 010°24'2412.0
2016-Jul-21 06:32N 37°37' E 009°55'2612.8
2016-Jul-21 04:32N 37°50' E 009°27'2612.2
2016-Jul-21 02:25N 38°04' E 008°59'1112.3
2016-Jul-21 01:33N 38°09' E 008°47'15712.0
2016-Jul-20 12:31N 39°31' E 005°56'1512.2
2016-Jul-20 11:17N 39°39' E 005°39'1012.1
2016-Jul-20 10:26N 39°44' E 005°27'1111.8
2016-Jul-20 09:32N 39°49' E 005°16'1212.0
2016-Jul-20 08:33N 39°55' E 005°02'2712.4
2016-Jul-20 06:22N 40°09' E 004°32'3712.5
2016-Jul-20 03:23N 40°29' E 003°50'1212.1
2016-Jul-20 02:22N 40°35' E 003°36'1011.7
2016-Jul-20 01:33N 40°41' E 003°26'1211.9
2016-Jul-20 00:33N 40°47' E 003°13'1211.9
2016-Jul-19 23:33N 40°53' E 002°59'1211.9
2016-Jul-19 22:33N 40°59' E 002°46'1212.0
2016-Jul-19 21:33N 41°05' E 002°32'1212.1
2016-Jul-19 20:33N 41°12' E 002°18'1110.6
2016-Jul-19 19:33N 41°20' E 002°10'1 0.0
2016-Jul-19 01:24N 41°20' E 002°09'0 0.0
2016-Jul-18 23:24N 41°20' E 002°09'1 0.0
2016-Jul-18 10:31N 41°21' E 002°10'5 4.8
2016-Jul-18 09:33N 41°16' E 002°11'1211.8
2016-Jul-18 08:33N 41°05' E 002°06'6 6.0
2016-Jul-18 07:33N 40°60' E 002°02'1010.1
2016-Jul-18 06:34N 40°51' E 001°56'1110.4
2016-Jul-18 05:33N 40°42' E 001°49'1010.4
2016-Jul-18 04:33N 40°33' E 001°42'1111.3
2016-Jul-18 03:34N 40°23' E 001°36'1211.8
2016-Jul-18 02:34N 40°12' E 001°29'1211.7
2016-Jul-18 01:33N 40°02' E 001°22'1211.8
2016-Jul-18 00:33N 39°51' E 001°15'5112.0
2016-Jul-17 20:15N 39°06' E 000°44'3312.0
2016-Jul-17 17:27N 38°36' E 000°23'1111.8
2016-Jul-17 16:32N 38°27' E 000°16'1312.3
2016-Jul-17 15:27N 38°16' E 000°06'1111.8
2016-Jul-17 14:30N 38°07' W 000°02'3411.6
2016-Jul-17 11:32N 37°38' W 000°26'24810.1
2016-Jul-16 11:03N 36°01' W 005°11'611.1
2016-Jul-16 10:33N 35°60' W 005°17'1010.4
2016-Jul-16 09:33N 35°57' W 005°30'145 8.9
2016-Jul-15 17:23N 34°33' W 007°54'2311.2
2016-Jul-15 15:20N 34°17' W 008°13'1111.4
2016-Jul-15 14:24N 34°09' W 008°23'1011.1
2016-Jul-15 13:31N 34°03' W 008°31'21210.1
2016-Jul-14 16:32N 31°17' W 011°08'9 9.2
2016-Jul-14 15:33N 31°09' W 011°14'11 9.0
2016-Jul-14 14:17N 30°60' W 011°21'20 7.2
2016-Jul-14 11:33N 30°43' W 011°33'9 8.9
2016-Jul-14 10:32N 30°35' W 011°39'9 9.2
2016-Jul-14 09:33N 30°27' W 011°44'9 9.1
2016-Jul-14 08:33N 30°20' W 011°50'13 9.4
2016-Jul-14 07:13N 30°09' W 011°58'15 9.0
2016-Jul-14 05:33N 29°56' W 012°07'116 8.7
2016-Jul-13 16:13N 28°18' W 013°18'  
Track history (hours):
 
Tides and Currents Weather Stations Pressure Air Temp Water Temp Dewpoint Dewpoint Depression Visibility Wind Speed Wind Dir Waves Ship Positions

Samus Swan

Last reported at 2016-Jul-22 03:07 UTC. Time now 2016-Jul-26 16:09 UTC.
Position N 36°29' E 014°31'.

Length 106 m; draft 5.4 m.

Type: Tanker. MMSI: 248363000.

Date/timePositionNaut miles runAvg speedWind from/ knotsBaromVisibWave heightAir tempDewpointWater temp
2016-Jul-22 03:07N 36°29' E 014°31'5 8.9
2016-Jul-22 02:33N 36°30' E 014°25'22 9.8
2016-Jul-22 00:16N 36°35' E 013°58'7 9.6
2016-Jul-21 23:33N 36°36' E 013°50'10 9.8
2016-Jul-21 22:33N 36°39' E 013°38'10 9.7
2016-Jul-21 21:33N 36°41' E 013°26'1111.1
2016-Jul-21 20:33N 36°44' E 013°13'1211.8
2016-Jul-21 19:33N 36°47' E 012°59'1211.6
2016-Jul-21 18:33N 36°50' E 012°45'1211.9
2016-Jul-21 17:33N 36°53' E 012°30'1412.0
2016-Jul-21 16:25N 36°55' E 012°14'2111.4
2016-Jul-21 14:33N 37°03' E 011°49'1211.9
2016-Jul-21 13:33N 37°10' E 011°36'1211.8
2016-Jul-21 12:33N 37°16' E 011°24'1312.5
2016-Jul-21 11:33N 37°21' E 011°09'1312.9
2016-Jul-21 10:33N 37°26' E 010°54'1212.3
2016-Jul-21 09:33N 37°29' E 010°39'1212.3
2016-Jul-21 08:33N 37°32' E 010°24'2412.0
2016-Jul-21 06:32N 37°37' E 009°55'2612.8
2016-Jul-21 04:32N 37°50' E 009°27'2612.2
2016-Jul-21 02:25N 38°04' E 008°59'1112.3
2016-Jul-21 01:33N 38°09' E 008°47'15712.0
2016-Jul-20 12:31N 39°31' E 005°56'1512.2
2016-Jul-20 11:17N 39°39' E 005°39'1012.1
2016-Jul-20 10:26N 39°44' E 005°27'1111.8
2016-Jul-20 09:32N 39°49' E 005°16'1212.0
2016-Jul-20 08:33N 39°55' E 005°02'2712.4
2016-Jul-20 06:22N 40°09' E 004°32'3712.5
2016-Jul-20 03:23N 40°29' E 003°50'1212.1
2016-Jul-20 02:22N 40°35' E 003°36'1011.7
2016-Jul-20 01:33N 40°41' E 003°26'1211.9
2016-Jul-20 00:33N 40°47' E 003°13'1211.9
2016-Jul-19 23:33N 40°53' E 002°59'1211.9
2016-Jul-19 22:33N 40°59' E 002°46'1212.0
2016-Jul-19 21:33N 41°05' E 002°32'1212.1
2016-Jul-19 20:33N 41°12' E 002°18'1110.6
2016-Jul-19 19:33N 41°20' E 002°10'1 0.0
2016-Jul-19 01:24N 41°20' E 002°09'0 0.0
2016-Jul-18 23:24N 41°20' E 002°09'1 0.0
2016-Jul-18 10:31N 41°21' E 002°10'5 4.8
2016-Jul-18 09:33N 41°16' E 002°11'1211.8
2016-Jul-18 08:33N 41°05' E 002°06'6 6.0
2016-Jul-18 07:33N 40°60' E 002°02'1010.1
2016-Jul-18 06:34N 40°51' E 001°56'1110.4
2016-Jul-18 05:33N 40°42' E 001°49'1010.4
2016-Jul-18 04:33N 40°33' E 001°42'1111.3
2016-Jul-18 03:34N 40°23' E 001°36'1211.8
2016-Jul-18 02:34N 40°12' E 001°29'1211.7
2016-Jul-18 01:33N 40°02' E 001°22'1211.8
2016-Jul-18 00:33N 39°51' E 001°15'5112.0
2016-Jul-17 20:15N 39°06' E 000°44'3312.0
2016-Jul-17 17:27N 38°36' E 000°23'1111.8
2016-Jul-17 16:32N 38°27' E 000°16'1312.3
2016-Jul-17 15:27N 38°16' E 000°06'1111.8
2016-Jul-17 14:30N 38°07' W 000°02'3411.6
2016-Jul-17 11:32N 37°38' W 000°26'24810.1
2016-Jul-16 11:03N 36°01' W 005°11'611.1
2016-Jul-16 10:33N 35°60' W 005°17'1010.4
2016-Jul-16 09:33N 35°57' W 005°30'145 8.9
2016-Jul-15 17:23N 34°33' W 007°54'2311.2
2016-Jul-15 15:20N 34°17' W 008°13'1111.4
2016-Jul-15 14:24N 34°09' W 008°23'1011.1
2016-Jul-15 13:31N 34°03' W 008°31'21210.1
2016-Jul-14 16:32N 31°17' W 011°08'9 9.2
2016-Jul-14 15:33N 31°09' W 011°14'11 9.0
2016-Jul-14 14:17N 30°60' W 011°21'20 7.2
2016-Jul-14 11:33N 30°43' W 011°33'9 8.9
2016-Jul-14 10:32N 30°35' W 011°39'9 9.2
2016-Jul-14 09:33N 30°27' W 011°44'9 9.1
2016-Jul-14 08:33N 30°20' W 011°50'13 9.4
2016-Jul-14 07:13N 30°09' W 011°58'15 9.0
2016-Jul-14 05:33N 29°56' W 012°07'116 8.7
2016-Jul-13 16:13N 28°18' W 013°18'  

Dump ship's entire track history